Roy, Louisiana
Current Conditions -  °F | °C
As of 2:36 AM on Wednesday 26 Nov 2014 (Local Time) from KMNE Reporting Station
Clear Clear  
Wind Chill: 39°   Ceiling: Unl
Heat Index: 39°   Visibility: 10mi
Dew Point: 34°   Wind: 3mph
Humidity: 81%   Direction: 140°SE
Pressure: 30.16"   Gusts: NA
Location:  32.2628°N, 93.0795°W
Report Text: KMNE 260836Z AUTO 14003KT 10SM CLR 04/01 A3016 RMK AO2
Loading
Personal Weather Stations






























Interactive Weather Map New forecast layout! Learn more

10-Day Weather Forecast

Advertisements
Track Severe Weather on mobile